Time;durP1;ratioP1;P1;durP2;ratioP2;P2;SDS_P1;SDS_P2;PMS_P1;PMS_P2;Temp;Humidity;BMP_temperature;BMP_pressure;BME280_temperature;BME280_humidity;BME280_pressure;Samples;Min_cycle;Max_cycle;Signal;HPM_P1;HPM_P2
2022/01/21 00:00:20;;;;;;;0.00;0.00;;;1.20;99.90;;;;;;5038482;28;20052;-88
2022/01/21 00:02:46;;;;;;;0.00;0.00;;;1.20;99.90;;;;;;5038267;28;20053;-87
2022/01/21 00:05:12;;;;;;;0.45;0.20;;;1.20;99.90;;;;;;5038848;28;20041;-87
2022/01/21 00:07:38;;;;;;;0.08;0.08;;;1.20;99.90;;;;;;5038413;28;20112;-88
2022/01/21 00:10:05;;;;;;;0.00;0.00;;;1.20;99.90;;;;;;5038004;28;20052;-88
2022/01/21 00:12:32;;;;;;;0.00;0.00;;;1.20;99.90;;;;;;5054964;28;20052;-88
2022/01/21 00:15:01;;;;;;;0.00;0.00;;;1.20;99.90;;;;;;5038106;28;20140;-88
2022/01/21 00:17:27;;;;;;;0.00;0.00;;;1.20;99.90;;;;;;5054102;28;20480;-88
2022/01/21 00:30:05;;;;;;;0.00;0.00;;;2.10;99.90;;;;;;5054226;28;20057;-87
2022/01/21 00:30:51;;;;;;;0.40;0.13;;;1.00;99.90;;;;;;5054936;28;20060;-88
2022/01/21 00:33:16;;;;;;;0.00;0.00;;;1.00;99.90;;;;;;5053794;28;20048;-87
2022/01/21 00:35:42;;;;;;;0.00;0.00;;;1.00;99.90;;;;;;5037296;28;20130;-88
2022/01/21 00:38:13;;;;;;;0.00;0.00;;;1.00;99.90;;;;;;5037607;28;20049;-87
2022/01/21 00:40:39;;;;;;;0.00;0.00;;;1.10;99.90;;;;;;5054465;28;20052;-88
2022/01/21 00:45:33;;;;;;;0.00;0.00;;;1.60;99.90;;;;;;5055305;28;20098;-87
2022/01/21 00:47:59;;;;;;;0.95;0.47;;;1.10;99.90;;;;;;5038578;28;20051;-87
2022/01/21 00:50:25;;;;;;;0.00;0.00;;;1.70;99.90;;;;;;5055011;28;20124;-88
2022/01/21 00:52:50;;;;;;;0.10;0.10;;;1.30;99.90;;;;;;5055318;28;20033;-88
2022/01/21 00:55:19;;;;;;;0.00;0.00;;;1.30;99.90;;;;;;5054319;28;20041;-87
2022/01/21 00:57:45;;;;;;;0.00;0.00;;;1.30;99.90;;;;;;5055092;28;20060;-88
2022/01/21 01:00:12;;;;;;;0.00;0.00;;;1.50;99.90;;;;;;5038152;28;20484;-88
2022/01/21 01:02:38;;;;;;;0.00;0.00;;;1.50;99.90;;;;;;5038522;28;20045;-87
2022/01/21 01:05:06;;;;;;;0.00;0.00;;;1.50;99.90;;;;;;5038217;28;20045;-87
2022/01/21 01:07:32;;;;;;;0.00;0.00;;;1.50;99.90;;;;;;5054247;28;20051;-87
2022/01/21 01:10:01;;;;;;;0.00;0.00;;;1.60;99.90;;;;;;5037223;28;20123;-87
2022/01/21 01:20:49;;;;;;;12.20;1.08;;;1.70;99.90;;;;;;5053696;28;20114;-88
2022/01/21 01:23:37;;;;;;;0.00;0.00;;;1.70;99.90;;;;;;5036818;28;20072;-89
2022/01/21 01:28:50;;;;;;;0.00;0.00;;;1.60;99.90;;;;;;5053353;28;20055;-88
2022/01/21 01:31:16;;;;;;;0.00;0.00;;;1.60;99.90;;;;;;5053385;28;20040;-88
2022/01/21 01:33:44;;;;;;;0.00;0.00;;;1.80;99.90;;;;;;5037231;28;20481;-88
2022/01/21 01:36:10;;;;;;;0.00;0.00;;;1.60;99.90;;;;;;5053438;28;20037;-88
2022/01/21 01:41:25;;;;;;;0.45;0.45;;;1.60;99.90;;;;;;5053772;28;20059;-88
2022/01/21 01:49:31;;;;;;;0.00;0.00;;;2.50;99.90;;;;;;5053982;28;20053;-88
2022/01/21 01:52:00;;;;;;;0.00;0.00;;;1.90;99.90;;;;;;5037066;28;20139;-88
2022/01/21 01:54:28;;;;;;;0.00;0.00;;;1.60;99.90;;;;;;5036303;28;20045;-88
2022/01/21 01:56:55;;;;;;;0.08;0.08;;;1.70;99.90;;;;;;5052975;28;20041;-88
2022/01/21 01:59:22;;;;;;;0.00;0.00;;;1.60;99.90;;;;;;5036053;28;20052;-88
2022/01/21 02:01:53;;;;;;;0.00;0.00;;;1.80;99.90;;;;;;5052918;28;20484;-88
2022/01/21 02:04:19;;;;;;;0.00;0.00;;;2.50;99.90;;;;;;5052783;28;20515;-88
2022/01/21 02:06:48;;;;;;;0.00;0.00;;;1.80;99.90;;;;;;5036601;28;20037;-88
2022/01/21 02:09:14;;;;;;;0.00;0.00;;;1.80;99.90;;;;;;5036134;28;20075;-88
2022/01/21 02:11:43;;;;;;;0.00;0.00;;;1.90;99.90;;;;;;5052519;28;20148;-88
2022/01/21 02:14:13;;;;;;;0.00;0.00;;;1.80;99.90;;;;;;5052402;28;20041;-88
2022/01/21 02:22:13;;;;;;;0.00;0.00;;;1.90;99.90;;;;;;5052715;28;20064;-88
2022/01/21 02:24:51;;;;;;;0.00;0.00;;;1.90;99.90;;;;;;5052323;28;20574;-88
2022/01/21 02:27:17;;;;;;;0.00;0.00;;;1.90;99.90;;;;;;5036100;28;20045;-88
2022/01/21 02:30:05;;;;;;;4.40;1.38;;;1.90;99.90;;;;;;5036020;28;20045;-88
2022/01/21 02:32:31;;;;;;;0.00;0.00;;;2.20;99.90;;;;;;5036141;28;20049;-88
2022/01/21 02:34:57;;;;;;;0.00;0.00;;;2.00;99.90;;;;;;5035959;28;20382;-88
2022/01/21 02:37:22;;;;;;;0.00;0.00;;;2.20;99.90;;;;;;5051849;28;20075;-88
2022/01/21 02:39:49;;;;;;;0.00;0.00;;;2.00;99.90;;;;;;5035708;28;20094;-88
2022/01/21 02:42:18;;;;;;;0.00;0.00;;;2.00;99.90;;;;;;5035764;28;20084;-88
2022/01/21 02:44:44;;;;;;;0.00;0.00;;;1.90;99.90;;;;;;5035696;28;20045;-88
2022/01/21 02:47:10;;;;;;;0.00;0.00;;;2.00;99.90;;;;;;5035143;28;20052;-88
2022/01/21 02:49:36;;;;;;;0.00;0.00;;;2.00;99.90;;;;;;5052461;28;20060;-88
2022/01/21 02:52:04;;;;;;;0.00;0.00;;;2.20;99.90;;;;;;5052031;28;20148;-89
2022/01/21 02:54:33;;;;;;;0.00;0.00;;;1.90;99.90;;;;;;5052459;28;20041;-88
2022/01/21 02:57:04;;;;;;;0.00;0.00;;;2.00;99.90;;;;;;5052428;28;20053;-88
2022/01/21 02:59:30;;;;;;;0.00;0.00;;;2.00;99.90;;;;;;5035872;28;20454;-88
2022/01/21 03:01:57;;;;;;;0.00;0.00;;;2.00;99.90;;;;;;5052144;28;20084;-88
2022/01/21 03:04:32;;;;;;;0.00;0.00;;;2.60;99.90;;;;;;5052131;28;20547;-88
2022/01/21 03:07:04;;;;;;;0.00;0.00;;;2.00;99.90;;;;;;5052034;28;20496;-88
2022/01/21 03:09:30;;;;;;;0.00;0.00;;;2.10;99.90;;;;;;5052321;28;20496;-88
2022/01/21 03:11:56;;;;;;;0.00;0.00;;;2.10;99.90;;;;;;5052185;28;20052;-88
2022/01/21 03:14:25;;;;;;;0.00;0.00;;;2.10;99.90;;;;;;5035441;28;20083;-88
2022/01/21 03:16:50;;;;;;;0.00;0.00;;;2.10;99.90;;;;;;5035491;28;20044;-89
2022/01/21 03:19:19;;;;;;;0.00;0.00;;;2.10;99.90;;;;;;5038959;28;20136;-88
2022/01/21 03:22:05;;;;;;;0.00;0.00;;;2.20;99.90;;;;;;5055646;28;20163;-89
2022/01/21 03:24:31;;;;;;;0.00;0.00;;;2.20;99.90;;;;;;4962633;28;20097;-89
2022/01/21 03:26:57;;;;;;;0.00;0.00;;;2.10;99.90;;;;;;4979080;28;20089;-89
2022/01/21 03:29:23;;;;;;;0.00;0.00;;;2.10;99.90;;;;;;4995252;28;20504;-89
2022/01/21 03:31:49;;;;;;;0.00;0.00;;;2.10;99.90;;;;;;4978996;28;20050;-89
2022/01/21 03:34:14;;;;;;;0.00;0.00;;;2.20;99.90;;;;;;4978668;28;20491;-89
2022/01/21 03:36:43;;;;;;;0.00;0.00;;;2.00;99.90;;;;;;4979002;28;20050;-89
2022/01/21 03:39:09;;;;;;;0.00;0.00;;;2.00;99.90;;;;;;4995219;28;20054;-89
2022/01/21 03:41:39;;;;;;;0.00;0.00;;;2.00;99.90;;;;;;4978883;28;20127;-89
2022/01/21 03:44:05;;;;;;;0.00;0.00;;;1.80;99.90;;;;;;4962918;28;20062;-89
2022/01/21 03:46:31;;;;;;;0.00;0.00;;;2.10;99.90;;;;;;4978882;28;20050;-89
2022/01/21 03:48:57;;;;;;;0.00;0.00;;;2.00;99.90;;;;;;4994842;28;20050;-88
2022/01/21 03:51:23;;;;;;;0.00;0.00;;;2.00;99.90;;;;;;4978756;28;20538;-89
2022/01/21 03:53:49;;;;;;;0.00;0.00;;;2.00;99.90;;;;;;4978509;28;20109;-88
2022/01/21 03:56:15;;;;;;;0.03;0.03;;;2.00;99.90;;;;;;4978660;28;20054;-88
2022/01/21 03:58:44;;;;;;;0.13;0.13;;;1.90;99.90;;;;;;4978436;28;20445;-88
2022/01/21 04:01:10;;;;;;;0.00;0.00;;;1.90;99.90;;;;;;5001400;28;20508;-89
2022/01/21 04:03:36;;;;;;;0.00;0.00;;;1.90;99.90;;;;;;5038540;28;20060;-89
2022/01/21 04:06:01;;;;;;;0.00;0.00;;;2.00;99.90;;;;;;5038394;28;20053;-89
2022/01/21 04:08:27;;;;;;;0.00;0.00;;;1.90;99.90;;;;;;5037650;28;20126;-89
2022/01/21 04:10:53;;;;;;;0.10;0.10;;;2.10;99.90;;;;;;5038117;28;20107;-89
2022/01/21 04:13:23;;;;;;;0.00;0.00;;;2.00;99.90;;;;;;5038434;28;20423;-89
2022/01/21 04:15:54;;;;;;;1.55;0.55;;;1.90;99.90;;;;;;5037996;28;20084;-89
2022/01/21 04:18:22;;;;;;;0.00;0.00;;;2.00;99.90;;;;;;5037745;28;20044;-89
2022/01/21 04:20:54;;;;;;;0.00;0.00;;;1.90;99.90;;;;;;5054848;28;20057;-89
2022/01/21 04:23:21;;;;;;;0.00;0.00;;;2.10;99.90;;;;;;5037799;28;20036;-89
2022/01/21 04:25:56;;;;;;;0.00;0.00;;;2.00;99.90;;;;;;5054589;28;20060;-89
2022/01/21 04:28:22;;;;;;;0.00;0.00;;;1.90;99.90;;;;;;5037129;28;20048;-89
2022/01/21 04:30:48;;;;;;;0.00;0.00;;;1.90;99.90;;;;;;5037581;28;20049;-89
2022/01/21 04:33:16;;;;;;;0.00;0.00;;;1.90;99.90;;;;;;5054548;28;20469;-89
2022/01/21 04:35:42;;;;;;;0.00;0.00;;;1.90;99.90;;;;;;5054538;28;20048;-89
2022/01/21 04:38:16;;;;;;;0.00;0.00;;;2.00;99.90;;;;;;5038745;28;20055;-89
2022/01/21 04:40:53;;;;;;;0.00;0.00;;;2.00;99.90;;;;;;5037836;28;20045;-89
2022/01/21 04:48:50;;;;;;;0.00;0.00;;;1.90;99.90;;;;;;5055323;28;20049;-89
2022/01/21 04:51:20;;;;;;;0.00;0.00;;;1.80;99.90;;;;;;5038551;28;20048;-89
2022/01/21 04:53:48;;;;;;;0.00;0.00;;;1.80;99.90;;;;;;5038718;28;20389;-89
2022/01/21 04:56:14;;;;;;;0.00;0.00;;;1.80;99.90;;;;;;5038554;28;20060;-89
2022/01/21 04:58:44;;;;;;;0.00;0.00;;;3.30;99.90;;;;;;5054754;28;20041;-89
2022/01/21 05:01:11;;;;;;;0.00;0.00;;;1.70;99.90;;;;;;5054789;28;20056;-89
2022/01/21 05:03:39;;;;;;;0.00;0.00;;;1.70;99.90;;;;;;5055021;28;20047;-89
2022/01/21 05:06:08;;;;;;;0.00;0.00;;;1.60;99.90;;;;;;5054602;28;20051;-89
2022/01/21 05:11:07;;;;;;;0.00;0.00;;;1.60;99.90;;;;;;5053963;28;20114;-89
2022/01/21 05:13:42;;;;;;;0.00;0.00;;;1.60;99.90;;;;;;5037198;28;20044;-89
2022/01/21 05:16:29;;;;;;;0.00;0.00;;;1.60;99.90;;;;;;5054075;28;20051;-89
2022/01/21 05:19:01;;;;;;;0.00;0.00;;;1.60;99.90;;;;;;5053254;28;20052;-89
2022/01/21 05:21:27;;;;;;;0.00;0.00;;;1.90;99.90;;;;;;5053775;28;20064;-89
2022/01/21 05:23:53;;;;;;;0.55;0.15;;;1.60;99.90;;;;;;5036793;28;20057;-89
2022/01/21 05:26:35;;;;;;;0.00;0.00;;;1.60;99.90;;;;;;5036652;28;20041;-89
2022/01/21 05:29:02;;;;;;;0.00;0.00;;;1.50;99.90;;;;;;5036947;28;20041;-89
2022/01/21 05:31:27;;;;;;;0.00;0.00;;;1.50;99.90;;;;;;5053797;28;20071;-89
2022/01/21 05:33:53;;;;;;;0.00;0.00;;;1.40;99.90;;;;;;5053500;28;20037;-88
2022/01/21 05:36:19;;;;;;;0.00;0.00;;;1.40;99.90;;;;;;5036648;28;20471;-89
2022/01/21 05:38:44;;;;;;;0.00;0.00;;;1.40;99.90;;;;;;5053280;28;20128;-89
2022/01/21 05:41:11;;;;;;;0.00;0.00;;;1.40;99.90;;;;;;5052898;28;20049;-89
2022/01/21 05:43:46;;;;;;;0.00;0.00;;;1.30;99.90;;;;;;5036991;28;20129;-89
2022/01/21 05:46:28;;;;;;;;;;;1.40;99.90;;;;;;5037406;28;20045;-89
2022/01/21 05:48:54;;;;;;;0.00;0.00;;;1.50;99.90;;;;;;5037209;28;20456;-89
2022/01/21 05:51:23;;;;;;;0.00;0.00;;;1.30;99.90;;;;;;5036648;28;20083;-89
2022/01/21 05:53:49;;;;;;;0.00;0.00;;;1.30;99.90;;;;;;5036583;28;20127;-89
2022/01/21 05:56:14;;;;;;;0.00;0.00;;;1.20;99.90;;;;;;5035641;28;20144;-89
2022/01/21 05:58:42;;;;;;;0.00;0.00;;;1.20;99.90;;;;;;5053118;28;20439;-89
2022/01/21 06:01:08;;;;;;;0.00;0.00;;;1.60;99.90;;;;;;5036621;28;20048;-89
2022/01/21 06:03:35;;;;;;;1.27;0.22;;;1.20;99.90;;;;;;5036830;28;20045;-89
2022/01/21 06:06:00;;;;;;;0.00;0.00;;;1.50;99.90;;;;;;5036733;28;20548;-90
2022/01/21 06:08:26;;;;;;;0.00;0.00;;;1.40;99.90;;;;;;5036347;28;20191;-89
2022/01/21 06:10:52;;;;;;;0.00;0.00;;;1.60;99.90;;;;;;5036852;28;20491;-89
2022/01/21 06:13:18;;;;;;;0.00;0.00;;;1.30;99.90;;;;;;5036721;28;20483;-89
2022/01/21 06:15:45;;;;;;;0.00;0.00;;;1.30;99.90;;;;;;5053075;28;20060;-89
2022/01/21 06:18:11;;;;;;;0.00;0.00;;;1.30;99.90;;;;;;5036791;28;20041;-89
2022/01/21 06:20:38;;;;;;;0.00;0.00;;;1.20;99.90;;;;;;5052744;28;20061;-89
2022/01/21 06:23:04;;;;;;;0.00;0.00;;;1.70;99.90;;;;;;5036109;28;20114;-90
2022/01/21 06:25:31;;;;;;;0.00;0.00;;;1.30;99.90;;;;;;5036648;28;20080;-90
2022/01/21 06:27:59;;;;;;;0.00;0.00;;;1.30;99.90;;;;;;5036211;28;20560;-89
2022/01/21 06:30:25;;;;;;;0.00;0.00;;;1.30;99.90;;;;;;5053880;28;20049;-89
2022/01/21 06:32:53;;;;;;;0.00;0.00;;;1.90;99.90;;;;;;5036912;28;20102;-90
2022/01/21 06:35:19;;;;;;;0.00;0.00;;;1.40;99.90;;;;;;5036380;28;20580;-89
2022/01/21 06:37:45;;;;;;;0.00;0.00;;;1.50;99.90;;;;;;5053237;28;20131;-89
2022/01/21 06:40:11;;;;;;;0.00;0.00;;;1.40;99.90;;;;;;5036808;28;20102;-89
2022/01/21 06:42:37;;;;;;;0.00;0.00;;;1.50;99.90;;;;;;5052556;28;20131;-88
2022/01/21 06:45:04;;;;;;;0.00;0.00;;;1.50;99.90;;;;;;5052655;28;20457;-88
2022/01/21 06:47:33;;;;;;;0.00;0.00;;;1.50;99.90;;;;;;5037265;28;20044;-89
2022/01/21 06:49:59;;;;;;;0.00;0.00;;;1.50;99.90;;;;;;5053215;28;20080;-89
2022/01/21 06:52:29;;;;;;;0.00;0.00;;;1.40;99.90;;;;;;5054050;28;20121;-89
2022/01/21 06:54:56;;;;;;;0.17;0.17;;;1.50;99.90;;;;;;5040315;28;20045;-89
2022/01/21 06:57:22;;;;;;;0.00;0.00;;;1.40;99.90;;;;;;5057038;28;20048;-89
2022/01/21 06:59:48;;;;;;;0.00;0.00;;;1.50;99.90;;;;;;5056110;28;20041;-89
2022/01/21 07:02:15;;;;;;;0.00;0.00;;;1.50;99.90;;;;;;5040167;28;20041;-89
2022/01/21 07:04:43;;;;;;;0.00;0.00;;;1.50;99.90;;;;;;5056435;28;20099;-89
2022/01/21 07:07:10;;;;;;;0.55;0.55;;;1.60;99.90;;;;;;5039803;28;20128;-89
2022/01/21 07:09:36;;;;;;;0.00;0.00;;;1.60;99.90;;;;;;5040282;28;20111;-89
2022/01/21 07:12:01;;;;;;;0.00;0.00;;;1.60;99.90;;;;;;5039676;28;20049;-89
2022/01/21 07:14:31;;;;;;;0.00;0.00;;;1.60;99.90;;;;;;5040211;28;20106;-90
2022/01/21 07:16:57;;;;;;;0.00;0.00;;;1.60;99.90;;;;;;5057606;28;20052;-89
2022/01/21 07:19:23;;;;;;;0.63;0.45;;;1.60;99.90;;;;;;5039385;28;20049;-89
2022/01/21 07:21:49;;;;;;;1.85;0.22;;;1.60;99.90;;;;;;5039625;28;20045;-89
2022/01/21 07:24:18;;;;;;;0.00;0.00;;;1.60;99.90;;;;;;5056114;28;20159;-89
2022/01/21 07:26:44;;;;;;;0.00;0.00;;;1.70;99.90;;;;;;5056348;28;20107;-89
2022/01/21 07:29:10;;;;;;;0.00;0.00;;;1.60;99.90;;;;;;5040160;28;20052;-89
2022/01/21 07:31:36;;;;;;;0.00;0.00;;;1.60;99.90;;;;;;5039932;28;20045;-89
2022/01/21 07:34:05;;;;;;;0.00;0.00;;;1.70;99.90;;;;;;5056222;28;20037;-89
2022/01/21 07:36:38;;;;;;;0.00;0.00;;;1.70;99.90;;;;;;5040415;28;20093;-89
2022/01/21 07:39:05;;;;;;;0.00;0.00;;;1.60;99.90;;;;;;5039452;28;20102;-88
2022/01/21 07:41:31;;;;;;;0.00;0.00;;;1.60;99.90;;;;;;5039536;28;20048;-89
2022/01/21 07:43:56;;;;;;;0.00;0.00;;;2.20;99.90;;;;;;5055705;28;20052;-90
2022/01/21 07:46:22;;;;;;;0.00;0.00;;;1.60;99.90;;;;;;5056329;28;20076;-89
2022/01/21 07:48:48;;;;;;;0.00;0.00;;;1.60;99.90;;;;;;5039256;28;20481;-89
2022/01/21 07:51:17;;;;;;;0.00;0.00;;;1.50;99.90;;;;;;5038891;28;20064;-89
2022/01/21 07:53:46;;;;;;;0.00;0.00;;;1.50;99.90;;;;;;5038946;28;20060;-88
2022/01/21 07:56:14;;;;;;;1.27;0.47;;;1.50;99.90;;;;;;5037994;28;20103;-89
2022/01/21 07:58:43;;;;;;;0.00;0.00;;;1.50;99.90;;;;;;5037441;28;20049;-88
2022/01/21 08:01:11;;;;;;;0.00;0.00;;;1.50;99.90;;;;;;5037397;28;20041;-88
2022/01/21 08:03:42;;;;;;;0.00;0.00;;;1.50;99.90;;;;;;5035640;28;20523;-88
2022/01/21 08:06:10;;;;;;;0.00;0.00;;;1.50;99.90;;;;;;5037581;28;20044;-88
2022/01/21 08:08:36;;;;;;;0.00;0.00;;;1.60;99.90;;;;;;5036961;28;20099;-89
2022/01/21 08:11:08;;;;;;;0.00;0.00;;;1.60;99.90;;;;;;5038156;28;20052;-89
2022/01/21 08:13:45;;;;;;;0.00;0.00;;;1.80;99.90;;;;;;5037815;28;20404;-90
2022/01/21 08:16:16;;;;;;;0.00;0.00;;;1.60;99.90;;;;;;5033176;28;20053;-90
2022/01/21 08:18:49;;;;;;;0.00;0.00;;;1.50;99.90;;;;;;5037348;28;20041;-85
2022/01/21 08:21:18;;;;;;;0.00;0.00;;;1.80;99.90;;;;;;5054265;28;20057;-86
2022/01/21 08:23:49;;;;;;;0.00;0.00;;;1.80;99.90;;;;;;5038045;28;20045;-90
2022/01/21 08:26:22;;;;;;;0.00;0.00;;;1.60;99.90;;;;;;5037684;28;20041;-91
2022/01/21 08:28:49;;;;;;;0.00;0.00;;;1.60;99.90;;;;;;5037408;28;20059;-88
2022/01/21 08:31:15;;;;;;;1.38;0.40;;;1.80;99.90;;;;;;5037180;28;20496;-87
2022/01/21 08:33:40;;;;;;;0.00;0.00;;;1.80;99.90;;;;;;5037346;28;20143;-86
2022/01/21 08:36:07;;;;;;;0.68;0.40;;;2.20;99.90;;;;;;5054696;28;20114;-86
2022/01/21 08:38:34;;;;;;;0.00;0.00;;;2.40;99.90;;;;;;5038174;28;20132;-85
2022/01/21 08:41:00;;;;;;;0.00;0.00;;;2.70;99.90;;;;;;5054785;28;20071;-86
2022/01/21 08:43:25;;;;;;;0.00;0.00;;;2.70;99.90;;;;;;5037536;28;20056;-87
2022/01/21 08:45:51;;;;;;;0.32;0.32;;;2.80;99.90;;;;;;5037838;28;20397;-85
2022/01/21 08:48:17;;;;;;;0.00;0.00;;;2.70;99.90;;;;;;5037309;28;20094;-85
2022/01/21 08:50:43;;;;;;;0.00;0.00;;;3.10;99.90;;;;;;5053709;28;20041;-85
2022/01/21 08:53:36;;;;;;;0.00;0.00;;;3.70;99.90;;;;;;5037119;28;20459;-85
2022/01/21 08:56:14;;;;;;;0.00;0.00;;;4.30;99.90;;;;;;5053907;28;20060;-85
2022/01/21 08:58:40;;;;;;;;;;;5.10;99.90;;;;;;5054538;28;20136;-85
2022/01/21 09:01:07;;;;;;;0.00;0.00;;;5.90;99.90;;;;;;5037426;28;19928;-84
2022/01/21 09:03:33;;;;;;;0.00;0.00;;;6.50;99.90;;;;;;5036748;28;20040;-84
2022/01/21 09:05:58;;;;;;;0.00;0.00;;;6.90;99.90;;;;;;5037293;28;20106;-84
2022/01/21 09:08:28;;;;;;;0.00;0.00;;;7.40;99.90;;;;;;5036938;28;20053;-84
2022/01/21 09:10:54;;;;;;;0.00;0.00;;;7.80;99.90;;;;;;5053456;28;20052;-84
2022/01/21 09:13:22;;;;;;;0.00;0.00;;;8.40;99.90;;;;;;5033589;28;20088;-84
2022/01/21 09:15:48;;;;;;;0.00;0.00;;;9.10;99.90;;;;;;5036714;28;20049;-86
2022/01/21 09:18:18;;;;;;;0.00;0.00;;;9.30;99.90;;;;;;5036070;28;20044;-85
2022/01/21 09:20:44;;;;;;;0.00;0.00;;;9.50;99.90;;;;;;5035014;28;20056;-86
2022/01/21 09:23:10;;;;;;;0.17;0.17;;;9.40;99.90;;;;;;5053395;28;20102;-87
2022/01/21 09:25:36;;;;;;;0.00;0.00;;;8.40;99.90;;;;;;5036410;28;20045;-87
2022/01/21 09:28:02;;;;;;;1.08;0.55;;;8.00;99.90;;;;;;5035960;28;20134;-88
2022/01/21 09:30:28;;;;;;;0.10;0.10;;;7.00;99.90;;;;;;5036355;28;20048;-88
2022/01/21 09:32:58;;;;;;;0.32;0.00;;;6.70;99.90;;;;;;5052793;28;20041;-89
2022/01/21 09:35:24;;;;;;;2.75;0.45;;;6.00;99.90;;;;;;5052878;28;20044;-87
2022/01/21 09:37:50;;;;;;;0.00;0.00;;;5.70;99.90;;;;;;5036042;28;20033;-87
2022/01/21 09:40:16;;;;;;;0.00;0.00;;;5.40;99.90;;;;;;5036558;28;20439;-88
2022/01/21 09:43:01;;;;;;;0.00;0.00;;;5.20;99.90;;;;;;5052966;28;20076;-86
2022/01/21 09:45:29;;;;;;;0.00;0.00;;;5.30;99.90;;;;;;5036269;28;20088;-87
2022/01/21 09:47:57;;;;;;;0.28;0.28;;;4.90;99.90;;;;;;5036279;28;20067;-87
2022/01/21 09:50:23;;;;;;;0.00;0.00;;;4.90;99.90;;;;;;5036255;28;20507;-88
2022/01/21 09:52:51;;;;;;;0.65;0.28;;;4.80;99.90;;;;;;5052406;28;20041;-87
2022/01/21 09:55:21;;;;;;;1.25;0.13;;;5.60;99.90;;;;;;5035973;28;20098;-88
2022/01/21 09:57:54;;;;;;;0.10;0.10;;;5.70;99.90;;;;;;5036023;28;20041;-88
2022/01/21 10:00:23;;;;;;;0.22;0.03;;;4.70;99.90;;;;;;5036334;28;20068;-88
2022/01/21 10:02:52;;;;;;;0.00;0.00;;;5.40;99.90;;;;;;5052874;28;20128;-88
2022/01/21 10:05:19;;;;;;;0.00;0.00;;;5.20;99.90;;;;;;5053258;28;20049;-87
2022/01/21 10:07:46;;;;;;;0.00;0.00;;;5.90;99.90;;;;;;5035756;28;20045;-87
2022/01/21 10:10:16;;;;;;;0.10;0.10;;;5.40;99.90;;;;;;5036441;28;20045;-86
2022/01/21 10:12:45;;;;;;;0.00;0.00;;;5.80;99.90;;;;;;5052605;28;20045;-86
2022/01/21 10:15:12;;;;;;;0.00;0.00;;;5.90;99.90;;;;;;5036002;28;20102;-85
2022/01/21 10:17:56;;;;;;;0.00;0.00;;;6.10;99.90;;;;;;5052576;28;20045;-86
2022/01/21 10:20:26;;;;;;;0.00;0.00;;;5.80;99.90;;;;;;5035573;28;20480;-86
2022/01/21 10:23:10;;;;;;;0.00;0.00;;;5.80;99.90;;;;;;5052808;28;20045;-86
2022/01/21 10:25:40;;;;;;;0.17;0.17;;;6.00;99.90;;;;;;5035959;28;20053;-85
2022/01/21 10:28:19;;;;;;;0.00;0.00;;;6.20;99.90;;;;;;5056494;28;20041;-85
2022/01/21 10:30:46;;;;;;;0.52;0.52;;;6.10;99.90;;;;;;5040343;28;20063;-86
2022/01/21 10:33:41;;;;;;;0.00;0.00;;;6.00;99.90;;;;;;5039800;28;20060;-85
2022/01/21 10:36:20;;;;;;;0.00;0.00;;;6.10;99.90;;;;;;4979504;28;20505;-85
2022/01/21 10:38:57;;;;;;;1.38;1.38;;;5.80;99.90;;;;;;4963998;28;20073;-94
2022/01/21 10:41:30;;;;;;;0.15;0.10;;;5.80;99.90;;;;;;4963996;28;20056;-85
2022/01/21 10:44:06;;;;;;;0.00;0.00;;;5.70;99.90;;;;;;4981425;28;20395;-86
2022/01/21 10:46:32;;;;;;;0.00;0.00;;;5.60;99.90;;;;;;4963637;28;20501;-85
2022/01/21 10:49:05;;;;;;;0.00;0.00;;;5.60;99.90;;;;;;4979063;28;20138;-86
2022/01/21 10:51:34;;;;;;;0.00;0.00;;;5.80;99.90;;;;;;4961963;28;20581;-86
2022/01/21 10:54:19;;;;;;;0.00;0.00;;;6.50;99.90;;;;;;4963733;28;20047;-86
2022/01/21 10:57:05;;;;;;;0.00;0.00;;;5.50;99.90;;;;;;4963401;28;20043;-86
2022/01/21 10:59:48;;;;;;;0.10;0.00;;;5.50;99.90;;;;;;4943996;28;20046;-86
2022/01/21 11:02:15;;;;;;;0.00;0.00;;;5.50;99.90;;;;;;4960361;28;20061;-86
2022/01/21 11:04:44;;;;;;;0.43;0.43;;;5.50;99.90;;;;;;4943851;28;20098;-85
2022/01/21 11:07:14;;;;;;;0.00;0.00;;;5.50;99.90;;;;;;4979079;28;20054;-86
2022/01/21 11:09:40;;;;;;;0.00;0.00;;;5.60;99.90;;;;;;4982497;28;20053;-85
2022/01/21 11:12:12;;;;;;;0.30;0.00;;;5.50;99.90;;;;;;4998511;28;20420;-85
2022/01/21 11:15:04;;;;;;;0.00;0.00;;;5.60;99.90;;;;;;4982019;28;20054;-85
2022/01/21 11:17:30;;;;;;;0.00;0.00;;;5.80;99.90;;;;;;4982579;28;20054;-85
2022/01/21 11:20:02;;;;;;;1.08;0.80;;;5.70;99.90;;;;;;4982081;28;20097;-85
2022/01/21 11:22:29;;;;;;;0.00;0.00;;;6.00;99.90;;;;;;4982387;28;20053;-85
2022/01/21 11:24:59;;;;;;;0.32;0.32;;;6.00;99.90;;;;;;4982408;28;20137;-85
2022/01/21 11:27:26;;;;;;;0.00;0.00;;;6.00;99.90;;;;;;4998692;28;20053;-85
2022/01/21 11:29:55;;;;;;;0.00;0.00;;;6.10;99.90;;;;;;4998480;28;20073;-85
2022/01/21 11:32:21;;;;;;;2.25;0.47;;;6.10;99.90;;;;;;4981828;28;20153;-86
2022/01/21 11:34:47;;;;;;;0.00;0.00;;;6.40;99.90;;;;;;4981713;28;20227;-86
2022/01/21 11:37:13;;;;;;;0.00;0.00;;;6.00;99.90;;;;;;5040928;28;20396;-85
2022/01/21 11:39:39;;;;;;;0.55;0.10;;;6.50;99.90;;;;;;5037253;28;20072;-85
2022/01/21 11:42:08;;;;;;;0.60;0.28;;;7.60;99.90;;;;;;5055058;28;20056;-86
2022/01/21 11:44:39;;;;;;;0.20;0.20;;;5.90;99.90;;;;;;5055172;28;20055;-86
2022/01/21 11:47:17;;;;;;;0.00;0.00;;;5.80;99.90;;;;;;5055110;28;20049;-86
2022/01/21 11:49:54;;;;;;;0.03;0.03;;;5.90;99.90;;;;;;5055237;28;20063;-86
2022/01/21 11:52:20;;;;;;;0.00;0.00;;;6.00;99.90;;;;;;5038673;28;20084;-86
2022/01/21 11:54:47;;;;;;;0.03;0.00;;;6.00;99.90;;;;;;5054675;28;20139;-86
2022/01/21 11:57:14;;;;;;;0.10;0.10;;;6.10;99.90;;;;;;5038253;28;20066;-86
2022/01/21 12:00:04;;;;;;;0.00;0.00;;;6.20;99.90;;;;;;5038244;28;20045;-87
2022/01/21 12:02:33;;;;;;;0.00;0.00;;;6.10;99.90;;;;;;5038561;28;20052;-85
2022/01/21 12:05:06;;;;;;;0.00;0.00;;;6.10;99.90;;;;;;5055574;28;20396;-87
2022/01/21 12:07:36;;;;;;;2.97;0.55;;;6.20;99.90;;;;;;5054919;28;20102;-87
2022/01/21 12:10:18;;;;;;;0.00;0.00;;;6.20;99.90;;;;;;5055162;28;20499;-86
2022/01/21 12:12:56;;;;;;;0.10;0.10;;;6.30;99.90;;;;;;5038596;28;20053;-86
2022/01/21 12:20:50;;;;;;;0.00;0.00;;;6.40;99.90;;;;;;5037353;28;20199;-86
2022/01/21 12:23:21;;;;;;;0.00;0.00;;;6.50;99.90;;;;;;5037730;28;20096;-86
2022/01/21 12:26:17;;;;;;;0.10;0.10;;;6.50;99.90;;;;;;5021224;28;20056;-85
2022/01/21 12:29:15;;;;;;;0.00;0.00;;;6.50;99.90;;;;;;5019877;28;20045;-86
2022/01/21 12:31:46;;;;;;;0.08;0.08;;;6.40;99.90;;;;;;5031463;28;20060;-85
2022/01/21 12:34:15;;;;;;;0.00;0.00;;;6.40;99.90;;;;;;5024572;28;20044;-86
2022/01/21 12:36:50;;;;;;;0.30;0.10;;;6.50;99.90;;;;;;5020393;28;20060;-87
2022/01/21 12:39:41;;;;;;;0.00;0.00;;;6.50;99.90;;;;;;5024361;28;20417;-87
2022/01/21 12:42:24;;;;;;;0.00;0.00;;;6.50;99.90;;;;;;5000731;28;20442;-87
2022/01/21 12:44:55;;;;;;;0.75;0.47;;;6.50;99.90;;;;;;5000856;28;20054;-86
2022/01/21 12:47:41;;;;;;;0.00;0.00;;;6.60;99.90;;;;;;5000821;28;20528;-86
2022/01/21 12:50:36;;;;;;;0.00;0.00;;;6.60;99.90;;;;;;5015989;28;20061;-87
2022/01/21 12:58:25;;;;;;;1.15;0.80;;;6.60;99.90;;;;;;5049393;28;20053;-85
2022/01/21 13:01:03;;;;;;;0.00;0.00;;;6.60;99.90;;;;;;5054110;28;20044;-86
2022/01/21 13:03:34;;;;;;;0.00;0.00;;;6.80;99.90;;;;;;5036445;28;20045;-85
2022/01/21 13:06:19;;;;;;;0.00;0.00;;;6.90;99.90;;;;;;5053989;28;20041;-85
2022/01/21 13:08:59;;;;;;;0.00;0.00;;;6.70;99.90;;;;;;5054859;28;20037;-85
2022/01/21 13:11:25;;;;;;;0.38;0.32;;;6.80;99.90;;;;;;5038101;28;20401;-85
2022/01/21 13:16:55;;;;;;;0.00;0.00;;;7.20;99.90;;;;;;5054715;28;20100;-86
2022/01/21 13:19:24;;;;;;;0.55;0.55;;;7.00;99.90;;;;;;5054227;28;20044;-86
2022/01/21 13:21:50;;;;;;;0.00;0.00;;;7.50;99.90;;;;;;5052532;28;20122;-85
2022/01/21 13:24:27;;;;;;;0.00;0.00;;;6.90;99.90;;;;;;5052649;28;20053;-86
2022/01/21 13:26:55;;;;;;;0.00;0.00;;;7.00;99.90;;;;;;5036304;28;20499;-86
2022/01/21 13:29:42;;;;;;;0.73;0.73;;;7.00;99.90;;;;;;5036677;28;20048;-86
2022/01/21 13:32:07;;;;;;;0.00;0.00;;;6.80;99.90;;;;;;5036453;28;20111;-86
2022/01/21 13:34:36;;;;;;;1.08;0.55;;;7.40;99.90;;;;;;5035797;28;20044;-85
2022/01/21 13:37:04;;;;;;;0.00;0.00;;;6.90;99.90;;;;;;5037583;28;20369;-87
2022/01/21 13:39:32;;;;;;;0.00;0.00;;;6.80;99.90;;;;;;5035869;28;20572;-87
2022/01/21 13:42:14;;;;;;;0.00;0.00;;;8.30;99.90;;;;;;5054320;28;20088;-88
2022/01/21 13:44:44;;;;;;;1.20;0.10;;;6.80;99.90;;;;;;5037142;28;20049;-87
2022/01/21 13:47:35;;;;;;;0.00;0.00;;;6.80;99.90;;;;;;5036813;28;20036;-86
2022/01/21 13:50:23;;;;;;;0.10;0.10;;;6.80;99.90;;;;;;5053488;28;20080;-85
2022/01/21 13:52:53;;;;;;;0.08;0.08;;;6.80;99.90;;;;;;5036519;28;20056;-85
2022/01/21 13:55:39;;;;;;;0.00;0.00;;;6.80;99.90;;;;;;5036357;28;20051;-85
2022/01/21 13:58:09;;;;;;;0.00;0.00;;;6.80;99.90;;;;;;5036480;28;20048;-85
2022/01/21 14:00:36;;;;;;;0.00;0.00;;;6.80;99.90;;;;;;5036497;28;20622;-85
2022/01/21 14:03:12;;;;;;;0.17;0.17;;;6.80;99.90;;;;;;5051916;28;20051;-86
2022/01/21 14:05:53;;;;;;;0.00;0.00;;;6.90;99.90;;;;;;5051288;28;20044;-86
2022/01/21 14:08:29;;;;;;;0.00;0.00;;;6.80;99.90;;;;;;5035384;28;20496;-86